sensor_id;sensor_type;location;lat;lon;timestamp;pressure;altitude;pressure_sealevel;temperature;humidity
16613;BME280;8419;52.358;9.752;2023-11-21T00:00:29;100297.00;;;16.68;49.04
16613;BME280;8419;52.358;9.752;2023-11-21T00:03:15;100299.00;;;16.69;49.00
16613;BME280;8419;52.358;9.752;2023-11-21T00:06:01;100303.00;;;16.68;49.00
16613;BME280;8419;52.358;9.752;2023-11-21T00:08:47;100299.00;;;16.65;49.01
16613;BME280;8419;52.358;9.752;2023-11-21T00:11:32;100307.00;;;16.62;49.01
16613;BME280;8419;52.358;9.752;2023-11-21T00:14:18;100308.00;;;16.61;49.03
16613;BME280;8419;52.358;9.752;2023-11-21T00:17:04;100310.00;;;16.56;49.09
16613;BME280;8419;52.358;9.752;2023-11-21T00:19:50;100321.00;;;16.56;49.03
16613;BME280;8419;52.358;9.752;2023-11-21T00:22:37;100317.00;;;16.51;49.11
16613;BME280;8419;52.358;9.752;2023-11-21T00:25:23;100316.00;;;16.45;49.15
16613;BME280;8419;52.358;9.752;2023-11-21T00:28:10;100313.00;;;16.42;49.19
16613;BME280;8419;52.358;9.752;2023-11-21T00:30:56;100313.00;;;16.39;49.25
16613;BME280;8419;52.358;9.752;2023-11-21T00:33:41;100317.00;;;16.38;49.26
16613;BME280;8419;52.358;9.752;2023-11-21T00:36:30;100310.00;;;16.35;49.27
16613;BME280;8419;52.358;9.752;2023-11-21T00:39:16;100312.00;;;16.32;49.33
16613;BME280;8419;52.358;9.752;2023-11-21T00:42:02;100309.00;;;16.30;49.36
16613;BME280;8419;52.358;9.752;2023-11-21T00:44:49;100305.00;;;16.25;49.41
16613;BME280;8419;52.358;9.752;2023-11-21T00:47:35;100304.00;;;16.24;49.46
16613;BME280;8419;52.358;9.752;2023-11-21T00:50:23;100316.00;;;16.25;49.39
16613;BME280;8419;52.358;9.752;2023-11-21T00:53:10;100325.00;;;16.24;49.45
16613;BME280;8419;52.358;9.752;2023-11-21T00:55:55;100321.00;;;16.23;49.44
16613;BME280;8419;52.358;9.752;2023-11-21T00:58:42;100318.00;;;16.26;49.43
16613;BME280;8419;52.358;9.752;2023-11-21T01:01:29;100325.00;;;16.30;49.35
16613;BME280;8419;52.358;9.752;2023-11-21T01:04:15;100324.00;;;16.31;49.40
16613;BME280;8419;52.358;9.752;2023-11-21T01:07:01;100334.00;;;16.43;49.18
16613;BME280;8419;52.358;9.752;2023-11-21T01:09:47;100331.00;;;16.30;49.55
16613;BME280;8419;52.358;9.752;2023-11-21T01:12:35;100341.00;;;16.32;49.58
16613;BME280;8419;52.358;9.752;2023-11-21T01:15:22;100336.00;;;16.33;49.57
16613;BME280;8419;52.358;9.752;2023-11-21T01:18:07;100339.00;;;16.34;49.62
16613;BME280;8419;52.358;9.752;2023-11-21T01:20:54;100349.00;;;16.36;49.62
16613;BME280;8419;52.358;9.752;2023-11-21T01:23:39;100349.00;;;16.36;49.69
16613;BME280;8419;52.358;9.752;2023-11-21T01:26:25;100344.00;;;16.36;49.70
16613;BME280;8419;52.358;9.752;2023-11-21T01:29:10;100349.00;;;16.35;49.79
16613;BME280;8419;52.358;9.752;2023-11-21T01:31:56;100349.00;;;16.38;49.80
16613;BME280;8419;52.358;9.752;2023-11-21T01:34:42;100359.00;;;16.37;49.82
16613;BME280;8419;52.358;9.752;2023-11-21T01:37:29;100366.00;;;16.37;49.80
16613;BME280;8419;52.358;9.752;2023-11-21T01:40:15;100365.00;;;16.54;49.49
16613;BME280;8419;52.358;9.752;2023-11-21T01:43:01;100368.00;;;16.64;49.37
16613;BME280;8419;52.358;9.752;2023-11-21T01:45:48;100365.00;;;16.35;49.80
16613;BME280;8419;52.358;9.752;2023-11-21T01:48:34;100367.00;;;16.39;49.79
16613;BME280;8419;52.358;9.752;2023-11-21T01:51:20;100365.00;;;16.36;49.82
16613;BME280;8419;52.358;9.752;2023-11-21T01:54:06;100367.00;;;16.36;49.90
16613;BME280;8419;52.358;9.752;2023-11-21T01:56:52;100362.00;;;16.36;49.88
16613;BME280;8419;52.358;9.752;2023-11-21T01:59:38;100360.00;;;16.33;49.95
16613;BME280;8419;52.358;9.752;2023-11-21T02:02:27;100358.00;;;16.31;50.03
16613;BME280;8419;52.358;9.752;2023-11-21T02:05:14;100356.00;;;16.32;50.02
16613;BME280;8419;52.358;9.752;2023-11-21T02:08:00;100356.00;;;16.37;49.94
16613;BME280;8419;52.358;9.752;2023-11-21T02:10:45;100362.00;;;16.34;49.99
16613;BME280;8419;52.358;9.752;2023-11-21T02:13:33;100365.00;;;16.38;49.95
16613;BME280;8419;52.358;9.752;2023-11-21T02:16:19;100369.00;;;16.37;50.00
16613;BME280;8419;52.358;9.752;2023-11-21T02:19:08;100379.00;;;16.40;49.97
16613;BME280;8419;52.358;9.752;2023-11-21T02:21:57;100374.00;;;16.38;49.98
16613;BME280;8419;52.358;9.752;2023-11-21T02:24:46;100372.00;;;16.42;49.93
16613;BME280;8419;52.358;9.752;2023-11-21T02:27:33;100382.00;;;16.47;49.89
16613;BME280;8419;52.358;9.752;2023-11-21T02:30:18;100383.00;;;16.53;49.81
16613;BME280;8419;52.358;9.752;2023-11-21T02:33:04;100384.00;;;16.52;49.84
16613;BME280;8419;52.358;9.752;2023-11-21T02:35:51;100381.00;;;16.49;49.90
16613;BME280;8419;52.358;9.752;2023-11-21T02:38:39;100380.00;;;16.44;50.09
16613;BME280;8419;52.358;9.752;2023-11-21T02:41:25;100379.00;;;16.50;49.99
16613;BME280;8419;52.358;9.752;2023-11-21T02:44:10;100381.00;;;16.54;49.95
16613;BME280;8419;52.358;9.752;2023-11-21T02:46:56;100371.00;;;16.57;49.86
16613;BME280;8419;52.358;9.752;2023-11-21T02:49:42;100378.00;;;16.57;49.89
16613;BME280;8419;52.358;9.752;2023-11-21T02:52:27;100377.00;;;16.47;50.15
16613;BME280;8419;52.358;9.752;2023-11-21T02:55:13;100384.00;;;16.59;49.93
16613;BME280;8419;52.358;9.752;2023-11-21T02:57:59;100376.00;;;16.57;49.94
16613;BME280;8419;52.358;9.752;2023-11-21T03:00:44;100382.00;;;16.59;49.96
16613;BME280;8419;52.358;9.752;2023-11-21T03:03:30;100381.00;;;16.60;49.98
16613;BME280;8419;52.358;9.752;2023-11-21T03:06:15;100389.00;;;16.60;49.96
16613;BME280;8419;52.358;9.752;2023-11-21T03:09:01;100391.00;;;16.56;50.15
16613;BME280;8419;52.358;9.752;2023-11-21T03:11:46;100402.00;;;16.55;50.20
16613;BME280;8419;52.358;9.752;2023-11-21T03:14:32;100405.00;;;16.65;50.01
16613;BME280;8419;52.358;9.752;2023-11-21T03:17:18;100405.00;;;16.68;49.93
16613;BME280;8419;52.358;9.752;2023-11-21T03:20:09;100406.00;;;16.72;49.92
16613;BME280;8419;52.358;9.752;2023-11-21T03:22:56;100406.00;;;16.63;50.17
16613;BME280;8419;52.358;9.752;2023-11-21T03:25:41;100411.00;;;16.65;50.21
16613;BME280;8419;52.358;9.752;2023-11-21T03:28:27;100410.00;;;16.65;50.24
16613;BME280;8419;52.358;9.752;2023-11-21T03:31:13;100415.00;;;16.63;50.31
16613;BME280;8419;52.358;9.752;2023-11-21T03:33:59;100412.00;;;16.82;49.83
16613;BME280;8419;52.358;9.752;2023-11-21T03:36:44;100415.00;;;16.68;50.23
16613;BME280;8419;52.358;9.752;2023-11-21T03:39:31;100429.00;;;16.71;50.26
16613;BME280;8419;52.358;9.752;2023-11-21T03:42:17;100431.00;;;16.71;50.25
16613;BME280;8419;52.358;9.752;2023-11-21T03:45:03;100434.00;;;16.74;50.21
16613;BME280;8419;52.358;9.752;2023-11-21T03:47:50;100438.00;;;16.72;50.24
16613;BME280;8419;52.358;9.752;2023-11-21T03:50:35;100430.00;;;16.74;50.23
16613;BME280;8419;52.358;9.752;2023-11-21T03:53:21;100435.00;;;16.64;50.45
16613;BME280;8419;52.358;9.752;2023-11-21T03:56:08;100430.00;;;16.74;50.23
16613;BME280;8419;52.358;9.752;2023-11-21T03:58:53;100438.00;;;16.59;50.49
16613;BME280;8419;52.358;9.752;2023-11-21T04:01:39;100441.00;;;16.63;50.41
16613;BME280;8419;52.358;9.752;2023-11-21T04:04:24;100437.00;;;16.75;50.19
16613;BME280;8419;52.358;9.752;2023-11-21T04:07:10;100444.00;;;16.66;50.35
16613;BME280;8419;52.358;9.752;2023-11-21T04:09:56;100450.00;;;16.63;50.44
16613;BME280;8419;52.358;9.752;2023-11-21T04:12:41;100452.00;;;16.62;50.46
16613;BME280;8419;52.358;9.752;2023-11-21T04:15:27;100449.00;;;16.53;50.62
16613;BME280;8419;52.358;9.752;2023-11-21T04:18:12;100449.00;;;16.51;50.66
16613;BME280;8419;52.358;9.752;2023-11-21T04:20:58;100461.00;;;16.38;50.98
16613;BME280;8419;52.358;9.752;2023-11-21T04:23:44;100460.00;;;16.34;51.10
16613;BME280;8419;52.358;9.752;2023-11-21T04:26:29;100465.00;;;16.34;51.12
16613;BME280;8419;52.358;9.752;2023-11-21T04:29:16;100467.00;;;16.45;50.92
16613;BME280;8419;52.358;9.752;2023-11-21T04:32:02;100467.00;;;16.51;50.86
16613;BME280;8419;52.358;9.752;2023-11-21T04:34:47;100478.00;;;16.42;50.96
16613;BME280;8419;52.358;9.752;2023-11-21T04:37:33;100480.00;;;16.39;51.04
16613;BME280;8419;52.358;9.752;2023-11-21T04:40:18;100478.00;;;16.37;51.12
16613;BME280;8419;52.358;9.752;2023-11-21T04:43:05;100487.00;;;16.36;51.22
16613;BME280;8419;52.358;9.752;2023-11-21T04:45:51;100483.00;;;16.26;51.46
16613;BME280;8419;52.358;9.752;2023-11-21T04:48:36;100487.00;;;16.23;51.56
16613;BME280;8419;52.358;9.752;2023-11-21T04:51:23;100490.00;;;16.19;51.64
16613;BME280;8419;52.358;9.752;2023-11-21T04:54:08;100493.00;;;16.12;51.77
16613;BME280;8419;52.358;9.752;2023-11-21T04:56:55;100502.00;;;16.16;51.66
16613;BME280;8419;52.358;9.752;2023-11-21T04:59:41;100500.00;;;16.12;51.79
16613;BME280;8419;52.358;9.752;2023-11-21T05:02:26;100510.00;;;16.11;51.81
16613;BME280;8419;52.358;9.752;2023-11-21T05:05:12;100507.00;;;16.02;52.03
16613;BME280;8419;52.358;9.752;2023-11-21T05:07:59;100519.00;;;16.01;52.01
16613;BME280;8419;52.358;9.752;2023-11-21T05:10:45;100517.00;;;15.97;52.16
16613;BME280;8419;52.358;9.752;2023-11-21T05:13:34;100515.00;;;15.94;52.24
16613;BME280;8419;52.358;9.752;2023-11-21T05:16:21;100526.00;;;15.97;52.24
16613;BME280;8419;52.358;9.752;2023-11-21T05:19:09;100514.00;;;15.95;52.28
16613;BME280;8419;52.358;9.752;2023-11-21T05:21:54;100520.00;;;16.14;51.86
16613;BME280;8419;52.358;9.752;2023-11-21T05:24:40;100528.00;;;16.00;52.17
16613;BME280;8419;52.358;9.752;2023-11-21T05:27:25;100520.00;;;15.94;52.37
16613;BME280;8419;52.358;9.752;2023-11-21T05:30:12;100526.00;;;15.91;52.52
16613;BME280;8419;52.358;9.752;2023-11-21T05:32:58;100532.00;;;15.90;52.65
16613;BME280;8419;52.358;9.752;2023-11-21T05:35:44;100537.00;;;15.97;52.49
16613;BME280;8419;52.358;9.752;2023-11-21T05:38:30;100543.00;;;16.04;52.39
16613;BME280;8419;52.358;9.752;2023-11-21T05:41:19;100544.00;;;16.05;52.39
16613;BME280;8419;52.358;9.752;2023-11-21T05:44:05;100551.00;;;16.06;52.42
16613;BME280;8419;52.358;9.752;2023-11-21T05:46:53;100553.00;;;16.07;52.35
16613;BME280;8419;52.358;9.752;2023-11-21T05:49:39;100558.00;;;16.07;52.45
16613;BME280;8419;52.358;9.752;2023-11-21T05:52:24;100556.00;;;16.10;52.41
16613;BME280;8419;52.358;9.752;2023-11-21T05:55:10;100564.00;;;15.96;52.74
16613;BME280;8419;52.358;9.752;2023-11-21T05:57:56;100563.00;;;15.88;52.93
16613;BME280;8419;52.358;9.752;2023-11-21T06:00:41;100567.00;;;16.08;52.51
16613;BME280;8419;52.358;9.752;2023-11-21T06:03:27;100568.00;;;16.08;52.47
16613;BME280;8419;52.358;9.752;2023-11-21T06:06:13;100572.00;;;16.15;52.32
16613;BME280;8419;52.358;9.752;2023-11-21T06:09:00;100574.00;;;16.00;52.78
16613;BME280;8419;52.358;9.752;2023-11-21T06:11:46;100587.00;;;16.08;52.71
16613;BME280;8419;52.358;9.752;2023-11-21T06:14:32;100585.00;;;16.13;52.61
16613;BME280;8419;52.358;9.752;2023-11-21T06:17:21;100587.00;;;16.05;52.72
16613;BME280;8419;52.358;9.752;2023-11-21T06:20:11;100587.00;;;16.11;52.65
16613;BME280;8419;52.358;9.752;2023-11-21T06:22:58;100599.00;;;16.15;52.42
16613;BME280;8419;52.358;9.752;2023-11-21T06:25:48;100599.00;;;15.96;53.02
16613;BME280;8419;52.358;9.752;2023-11-21T06:28:34;100598.00;;;15.97;53.06
16613;BME280;8419;52.358;9.752;2023-11-21T06:31:21;100604.00;;;16.01;53.02
16613;BME280;8419;52.358;9.752;2023-11-21T06:34:06;100603.00;;;16.05;52.97
16613;BME280;8419;52.358;9.752;2023-11-21T06:36:54;100609.00;;;16.12;52.92
16613;BME280;8419;52.358;9.752;2023-11-21T06:39:41;100615.00;;;16.22;52.82
16613;BME280;8419;52.358;9.752;2023-11-21T06:42:27;100618.00;;;16.27;52.78
16613;BME280;8419;52.358;9.752;2023-11-21T06:45:15;100618.00;;;16.27;52.80
16613;BME280;8419;52.358;9.752;2023-11-21T06:48:01;100631.00;;;16.33;52.80
16613;BME280;8419;52.358;9.752;2023-11-21T06:50:47;100634.00;;;16.35;52.75
16613;BME280;8419;52.358;9.752;2023-11-21T06:53:33;100642.00;;;16.35;52.76
16613;BME280;8419;52.358;9.752;2023-11-21T06:56:19;100649.00;;;16.31;52.77
16613;BME280;8419;52.358;9.752;2023-11-21T06:59:05;100658.00;;;16.32;52.66
16613;BME280;8419;52.358;9.752;2023-11-21T07:01:52;100670.00;;;16.29;52.60
16613;BME280;8419;52.358;9.752;2023-11-21T07:04:37;100681.00;;;16.16;52.68
16613;BME280;8419;52.358;9.752;2023-11-21T07:07:23;100679.00;;;16.06;52.72
16613;BME280;8419;52.358;9.752;2023-11-21T07:10:09;100690.00;;;16.03;52.73
16613;BME280;8419;52.358;9.752;2023-11-21T07:12:55;100693.00;;;15.92;52.85
16613;BME280;8419;52.358;9.752;2023-11-21T07:15:42;100700.00;;;15.93;52.74
16613;BME280;8419;52.358;9.752;2023-11-21T07:18:28;100708.00;;;15.91;52.71
16613;BME280;8419;52.358;9.752;2023-11-21T07:21:14;100717.00;;;15.94;52.60
16613;BME280;8419;52.358;9.752;2023-11-21T07:24:01;100725.00;;;16.00;52.38
16613;BME280;8419;52.358;9.752;2023-11-21T07:26:47;100718.00;;;15.93;52.59
16613;BME280;8419;52.358;9.752;2023-11-21T07:29:33;100723.00;;;15.94;52.51
16613;BME280;8419;52.358;9.752;2023-11-21T07:32:19;100735.00;;;15.98;52.32
16613;BME280;8419;52.358;9.752;2023-11-21T07:35:06;100725.00;;;15.94;52.37
16613;BME280;8419;52.358;9.752;2023-11-21T07:37:53;100734.00;;;15.93;52.28
16613;BME280;8419;52.358;9.752;2023-11-21T07:40:38;100749.00;;;15.94;52.31
16613;BME280;8419;52.358;9.752;2023-11-21T07:43:24;100755.00;;;15.91;52.30
16613;BME280;8419;52.358;9.752;2023-11-21T07:46:11;100756.00;;;15.95;52.27
16613;BME280;8419;52.358;9.752;2023-11-21T07:48:57;100764.00;;;15.87;52.41
16613;BME280;8419;52.358;9.752;2023-11-21T07:51:44;100763.00;;;16.02;52.06
16613;BME280;8419;52.358;9.752;2023-11-21T07:54:30;100770.00;;;15.93;52.21
16613;BME280;8419;52.358;9.752;2023-11-21T07:57:15;100772.00;;;15.92;52.20
16613;BME280;8419;52.358;9.752;2023-11-21T08:00:01;100774.00;;;15.90;52.20
16613;BME280;8419;52.358;9.752;2023-11-21T08:02:49;100775.00;;;15.92;52.13
16613;BME280;8419;52.358;9.752;2023-11-21T08:05:34;100779.00;;;15.92;52.14
16613;BME280;8419;52.358;9.752;2023-11-21T08:08:20;100782.00;;;15.93;52.10
16613;BME280;8419;52.358;9.752;2023-11-21T08:11:06;100781.00;;;15.91;52.16
16613;BME280;8419;52.358;9.752;2023-11-21T08:13:53;100795.00;;;15.88;52.21
16613;BME280;8419;52.358;9.752;2023-11-21T08:16:39;100802.00;;;15.87;52.22
16613;BME280;8419;52.358;9.752;2023-11-21T08:19:25;100806.00;;;15.90;52.15
16613;BME280;8419;52.358;9.752;2023-11-21T08:22:10;100813.00;;;15.94;52.05
16613;BME280;8419;52.358;9.752;2023-11-21T08:24:56;100818.00;;;15.97;52.06
16613;BME280;8419;52.358;9.752;2023-11-21T08:27:41;100826.00;;;16.19;51.50
16613;BME280;8419;52.358;9.752;2023-11-21T08:30:27;100828.00;;;16.27;51.19
16613;BME280;8419;52.358;9.752;2023-11-21T08:33:15;100828.00;;;16.25;51.22
16613;BME280;8419;52.358;9.752;2023-11-21T08:36:00;100840.00;;;16.10;51.65
16613;BME280;8419;52.358;9.752;2023-11-21T08:38:47;100849.00;;;16.18;51.57
16613;BME280;8419;52.358;9.752;2023-11-21T08:41:34;100849.00;;;16.25;51.52
16613;BME280;8419;52.358;9.752;2023-11-21T08:44:19;100841.00;;;16.31;51.43
16613;BME280;8419;52.358;9.752;2023-11-21T08:47:05;100847.00;;;16.36;51.40
16613;BME280;8419;52.358;9.752;2023-11-21T08:49:50;100845.00;;;16.45;51.26
16613;BME280;8419;52.358;9.752;2023-11-21T08:52:38;100846.00;;;16.54;51.15
16613;BME280;8419;52.358;9.752;2023-11-21T08:55:26;100850.00;;;16.64;50.98
16613;BME280;8419;52.358;9.752;2023-11-21T08:58:12;100854.00;;;16.66;50.93
16613;BME280;8419;52.358;9.752;2023-11-21T09:00:58;100857.00;;;16.74;50.86
16613;BME280;8419;52.358;9.752;2023-11-21T09:03:45;100874.00;;;16.77;50.79
16613;BME280;8419;52.358;9.752;2023-11-21T09:06:31;100880.00;;;16.83;50.68
16613;BME280;8419;52.358;9.752;2023-11-21T09:09:16;100885.00;;;16.87;50.55
16613;BME280;8419;52.358;9.752;2023-11-21T09:12:02;100884.00;;;16.94;50.50
16613;BME280;8419;52.358;9.752;2023-11-21T09:14:48;100891.00;;;17.00;50.37
16613;BME280;8419;52.358;9.752;2023-11-21T09:17:36;100897.00;;;17.00;50.36
16613;BME280;8419;52.358;9.752;2023-11-21T09:20:24;100905.00;;;17.07;50.16
16613;BME280;8419;52.358;9.752;2023-11-21T09:23:10;100910.00;;;17.09;50.09
16613;BME280;8419;52.358;9.752;2023-11-21T09:25:56;100911.00;;;17.14;49.92
16613;BME280;8419;52.358;9.752;2023-11-21T09:28:45;100905.00;;;17.20;49.79
16613;BME280;8419;52.358;9.752;2023-11-21T09:31:32;100918.00;;;17.18;49.74
16613;BME280;8419;52.358;9.752;2023-11-21T09:34:18;100931.00;;;17.18;49.66
16613;BME280;8419;52.358;9.752;2023-11-21T09:37:04;100935.00;;;17.23;49.60
16613;BME280;8419;52.358;9.752;2023-11-21T09:39:50;100929.00;;;17.18;49.43
16613;BME280;8419;52.358;9.752;2023-11-21T09:42:38;100944.00;;;17.16;49.38
16613;BME280;8419;52.358;9.752;2023-11-21T09:45:26;100944.00;;;17.16;49.25
16613;BME280;8419;52.358;9.752;2023-11-21T09:48:13;100947.00;;;17.13;49.21
16613;BME280;8419;52.358;9.752;2023-11-21T09:51:00;100944.00;;;17.04;49.37
16613;BME280;8419;52.358;9.752;2023-11-21T09:53:50;100960.00;;;17.33;48.63
16613;BME280;8419;52.358;9.752;2023-11-21T09:56:38;100960.00;;;17.33;48.48
16613;BME280;8419;52.358;9.752;2023-11-21T09:59:24;100968.00;;;17.17;48.84
16613;BME280;8419;52.358;9.752;2023-11-21T10:02:11;100979.00;;;17.14;48.81
16613;BME280;8419;52.358;9.752;2023-11-21T10:04:59;100986.00;;;17.11;48.77
16613;BME280;8419;52.358;9.752;2023-11-21T10:07:45;100988.00;;;17.13;48.60
16613;BME280;8419;52.358;9.752;2023-11-21T10:10:32;100985.00;;;17.18;48.48
16613;BME280;8419;52.358;9.752;2023-11-21T10:13:19;100989.00;;;17.20;48.39
16613;BME280;8419;52.358;9.752;2023-11-21T10:16:06;100990.00;;;17.29;48.20
16613;BME280;8419;52.358;9.752;2023-11-21T10:18:53;100991.00;;;17.34;48.06
16613;BME280;8419;52.358;9.752;2023-11-21T10:21:40;100999.00;;;17.46;47.85
16613;BME280;8419;52.358;9.752;2023-11-21T10:24:26;100999.00;;;17.53;47.75
16613;BME280;8419;52.358;9.752;2023-11-21T10:27:12;100999.00;;;17.58;47.55
16613;BME280;8419;52.358;9.752;2023-11-21T10:29:58;101002.00;;;17.57;47.52
16613;BME280;8419;52.358;9.752;2023-11-21T10:32:45;101005.00;;;17.55;47.51
16613;BME280;8419;52.358;9.752;2023-11-21T10:35:43;101013.00;;;17.54;47.42
16613;BME280;8419;52.358;9.752;2023-11-21T10:38:42;101021.00;;;17.54;47.28
16613;BME280;8419;52.358;9.752;2023-11-21T10:41:31;101019.00;;;17.53;47.09
16613;BME280;8419;52.358;9.752;2023-11-21T10:44:19;101015.00;;;17.41;47.21
16613;BME280;8419;52.358;9.752;2023-11-21T10:47:09;101018.00;;;17.36;47.10
16613;BME280;8419;52.358;9.752;2023-11-21T10:49:57;101026.00;;;17.39;46.99
16613;BME280;8419;52.358;9.752;2023-11-21T10:52:45;101028.00;;;17.37;46.94
16613;BME280;8419;52.358;9.752;2023-11-21T10:55:33;101037.00;;;17.36;46.93
16613;BME280;8419;52.358;9.752;2023-11-21T10:58:20;101032.00;;;17.42;46.78
16613;BME280;8419;52.358;9.752;2023-11-21T11:01:07;101034.00;;;17.46;46.61
16613;BME280;8419;52.358;9.752;2023-11-21T11:03:53;101038.00;;;17.43;46.55
16613;BME280;8419;52.358;9.752;2023-11-21T11:06:40;101038.00;;;17.44;46.40
16613;BME280;8419;52.358;9.752;2023-11-21T11:09:26;101051.00;;;17.83;45.47
16613;BME280;8419;52.358;9.752;2023-11-21T11:12:13;101049.00;;;17.78;45.35
16613;BME280;8419;52.358;9.752;2023-11-21T11:14:59;101055.00;;;17.79;45.26
16613;BME280;8419;52.358;9.752;2023-11-21T11:17:48;101058.00;;;17.87;45.01
16613;BME280;8419;52.358;9.752;2023-11-21T11:20:36;101053.00;;;17.60;45.51
16613;BME280;8419;52.358;9.752;2023-11-21T11:23:49;101054.00;;;17.48;45.64
16613;BME280;8419;52.358;9.752;2023-11-21T11:26:45;101050.00;;;17.57;45.66
16613;BME280;8419;52.358;9.752;2023-11-21T11:29:41;101053.00;;;17.77;45.34
16613;BME280;8419;52.358;9.752;2023-11-21T11:32:43;101069.00;;;17.93;45.07
16613;BME280;8419;52.358;9.752;2023-11-21T11:35:41;101064.00;;;18.03;44.85
16613;BME280;8419;52.358;9.752;2023-11-21T11:38:31;101070.00;;;18.05;44.81
16613;BME280;8419;52.358;9.752;2023-11-21T11:41:27;101077.00;;;18.05;44.77
16613;BME280;8419;52.358;9.752;2023-11-21T11:44:47;101079.00;;;18.09;44.66
16613;BME280;8419;52.358;9.752;2023-11-21T11:47:36;101075.00;;;18.11;44.52
16613;BME280;8419;52.358;9.752;2023-11-21T11:50:23;101080.00;;;17.94;44.60
16613;BME280;8419;52.358;9.752;2023-11-21T11:53:15;101080.00;;;17.87;44.67
16613;BME280;8419;52.358;9.752;2023-11-21T11:56:21;101082.00;;;17.88;44.55
16613;BME280;8419;52.358;9.752;2023-11-21T11:59:08;101083.00;;;17.92;44.44
16613;BME280;8419;52.358;9.752;2023-11-21T12:01:57;101092.00;;;17.88;44.38
16613;BME280;8419;52.358;9.752;2023-11-21T12:04:43;101099.00;;;17.86;44.30
16613;BME280;8419;52.358;9.752;2023-11-21T12:07:44;101100.00;;;17.88;44.18
16613;BME280;8419;52.358;9.752;2023-11-21T12:10:31;101103.00;;;17.98;43.82
16613;BME280;8419;52.358;9.752;2023-11-21T12:13:18;101100.00;;;17.83;44.07
16613;BME280;8419;52.358;9.752;2023-11-21T12:16:07;101098.00;;;17.87;43.92
16613;BME280;8419;52.358;9.752;2023-11-21T12:18:53;101104.00;;;18.03;43.57
16613;BME280;8419;52.358;9.752;2023-11-21T12:21:40;101108.00;;;18.13;43.30
16613;BME280;8419;52.358;9.752;2023-11-21T12:24:26;101117.00;;;18.15;43.22
16613;BME280;8419;52.358;9.752;2023-11-21T12:27:18;101109.00;;;17.98;43.34
16613;BME280;8419;52.358;9.752;2023-11-21T12:30:06;101118.00;;;17.82;43.59
16613;BME280;8419;52.358;9.752;2023-11-21T12:33:02;101117.00;;;17.74;43.60
16613;BME280;8419;52.358;9.752;2023-11-21T12:35:48;101121.00;;;17.63;43.67
16613;BME280;8419;52.358;9.752;2023-11-21T12:38:35;101129.00;;;17.56;43.66
16613;BME280;8419;52.358;9.752;2023-11-21T12:41:20;101121.00;;;17.53;43.60
16613;BME280;8419;52.358;9.752;2023-11-21T12:44:12;101139.00;;;17.48;43.68
16613;BME280;8419;52.358;9.752;2023-11-21T12:47:00;101141.00;;;17.43;43.70
16613;BME280;8419;52.358;9.752;2023-11-21T12:49:46;101140.00;;;17.49;43.45
16613;BME280;8419;52.358;9.752;2023-11-21T12:52:32;101140.00;;;17.50;43.37
16613;BME280;8419;52.358;9.752;2023-11-21T12:55:21;101142.00;;;17.46;43.44
16613;BME280;8419;52.358;9.752;2023-11-21T12:58:08;101147.00;;;17.54;43.16
16613;BME280;8419;52.358;9.752;2023-11-21T13:00:54;101146.00;;;17.52;43.18
16613;BME280;8419;52.358;9.752;2023-11-21T13:03:42;101149.00;;;17.55;43.06
16613;BME280;8419;52.358;9.752;2023-11-21T13:06:32;101156.00;;;17.55;43.00
16613;BME280;8419;52.358;9.752;2023-11-21T13:09:24;101144.00;;;17.45;43.00
16613;BME280;8419;52.358;9.752;2023-11-21T13:12:10;101150.00;;;17.42;43.08
16613;BME280;8419;52.358;9.752;2023-11-21T13:14:55;101155.00;;;17.35;43.06
16613;BME280;8419;52.358;9.752;2023-11-21T13:17:41;101159.00;;;17.08;43.58
16613;BME280;8419;52.358;9.752;2023-11-21T13:20:27;101161.00;;;17.04;43.70
16613;BME280;8419;52.358;9.752;2023-11-21T13:23:14;101163.00;;;17.00;43.76
16613;BME280;8419;52.358;9.752;2023-11-21T13:26:01;101161.00;;;16.99;43.76
16613;BME280;8419;52.358;9.752;2023-11-21T13:28:49;101174.00;;;16.97;43.78
16613;BME280;8419;52.358;9.752;2023-11-21T13:31:35;101172.00;;;16.96;43.76
16613;BME280;8419;52.358;9.752;2023-11-21T13:34:22;101188.00;;;16.99;43.67
16613;BME280;8419;52.358;9.752;2023-11-21T13:37:10;101191.00;;;17.11;43.42
16613;BME280;8419;52.358;9.752;2023-11-21T13:39:56;101196.00;;;16.94;43.57
16613;BME280;8419;52.358;9.752;2023-11-21T13:42:42;101208.00;;;16.84;43.81
16613;BME280;8419;52.358;9.752;2023-11-21T13:45:28;101214.00;;;16.83;43.83
16613;BME280;8419;52.358;9.752;2023-11-21T13:48:15;101217.00;;;16.82;43.80
16613;BME280;8419;52.358;9.752;2023-11-21T13:51:07;101222.00;;;16.75;43.90
16613;BME280;8419;52.358;9.752;2023-11-21T13:54:02;101225.00;;;16.77;43.86
16613;BME280;8419;52.358;9.752;2023-11-21T13:56:50;101223.00;;;16.71;43.87
16613;BME280;8419;52.358;9.752;2023-11-21T13:59:36;101227.00;;;16.72;43.84
16613;BME280;8419;52.358;9.752;2023-11-21T14:02:21;101238.00;;;16.83;43.58
16613;BME280;8419;52.358;9.752;2023-11-21T14:05:17;101225.00;;;16.83;43.39
16613;BME280;8419;52.358;9.752;2023-11-21T14:08:14;101232.00;;;16.78;43.47
16613;BME280;8419;52.358;9.752;2023-11-21T14:11:05;101241.00;;;16.80;43.36
16613;BME280;8419;52.358;9.752;2023-11-21T14:13:52;101248.00;;;16.81;43.21
16613;BME280;8419;52.358;9.752;2023-11-21T14:16:39;101248.00;;;16.79;43.16
16613;BME280;8419;52.358;9.752;2023-11-21T14:19:27;101241.00;;;16.77;43.13
16613;BME280;8419;52.358;9.752;2023-11-21T14:22:17;101256.00;;;16.75;43.13
16613;BME280;8419;52.358;9.752;2023-11-21T14:25:06;101264.00;;;16.56;43.39
16613;BME280;8419;52.358;9.752;2023-11-21T14:27:53;101274.00;;;16.60;43.30
16613;BME280;8419;52.358;9.752;2023-11-21T14:30:38;101276.00;;;16.38;43.53
16613;BME280;8419;52.358;9.752;2023-11-21T14:33:25;101278.00;;;16.28;43.66
16613;BME280;8419;52.358;9.752;2023-11-21T14:36:10;101278.00;;;16.23;43.64
16613;BME280;8419;52.358;9.752;2023-11-21T14:38:58;101293.00;;;16.26;43.44
16613;BME280;8419;52.358;9.752;2023-11-21T14:41:44;101299.00;;;16.00;43.85
16613;BME280;8419;52.358;9.752;2023-11-21T14:44:30;101307.00;;;15.93;43.90